Time;durP1;ratioP1;P1;durP2;ratioP2;P2;SDS_P1;SDS_P2;PMS_P1;PMS_P2;Temp;Humidity;BMP_temperature;BMP_pressure;BME280_temperature;BME280_humidity;BME280_pressure;Samples;Min_cycle;Max_cycle;Signal;HPM_P1;HPM_P2
2023/10/01 00:01:19;;;;;;;10.17;6.07;;;;;;;;;;4956202;28;20292;-73
2023/10/01 00:03:44;;;;;;;13.20;6.07;;;;;;;;;;4953122;28;20268;-74
2023/10/01 00:06:10;;;;;;;10.73;5.67;;;;;;;;;;4957052;28;20193;-73
2023/10/01 00:08:35;;;;;;;10.77;6.57;;;;;;;;;;4972190;28;20189;-74
2023/10/01 00:11:01;;;;;;;9.83;4.97;;;;;;;;;;4972186;28;20178;-75
2023/10/01 00:13:26;;;;;;;11.97;6.97;;;;;;;;;;4973941;28;20219;-75
2023/10/01 00:15:52;;;;;;;9.60;5.30;;;;;;;;;;4954627;28;20189;-74
2023/10/01 00:18:17;;;;;;;7.93;5.80;;;;;;;;;;4972303;28;20173;-74
2023/10/01 00:20:43;;;;;;;8.53;6.20;;;;;;;;;;4972905;28;20326;-74
2023/10/01 00:23:08;;;;;;;9.70;5.70;;;;;;;;;;4969809;28;20172;-74
2023/10/01 00:25:35;;;;;;;9.37;6.47;;;;;;;;;;4961445;28;20184;-74
2023/10/01 00:28:04;;;;;;;9.53;5.93;;;;;;;;;;4955546;28;20218;-74
2023/10/01 00:30:31;;;;;;;8.87;5.60;;;;;;;;;;4972619;28;20238;-75
2023/10/01 00:32:57;;;;;;;9.57;6.47;;;;;;;;;;4956075;28;20186;-74
2023/10/01 00:35:22;;;;;;;10.20;5.80;;;;;;;;;;4971414;28;20211;-74
2023/10/01 00:37:47;;;;;;;8.60;5.80;;;;;;;;;;4970393;28;20265;-74
2023/10/01 00:40:13;;;;;;;8.50;5.40;;;;;;;;;;4956132;28;20185;-75
2023/10/01 00:42:39;;;;;;;8.87;5.47;;;;;;;;;;4955817;28;20181;-74
2023/10/01 00:45:07;;;;;;;9.33;5.50;;;;;;;;;;4955365;28;20224;-74
2023/10/01 00:47:33;;;;;;;8.40;5.90;;;;;;;;;;4951865;28;20188;-74
2023/10/01 00:49:59;;;;;;;8.97;5.50;;;;;;;;;;4970897;28;20193;-74
2023/10/01 00:52:24;;;;;;;9.93;6.00;;;;;;;;;;4972191;28;20216;-75
2023/10/01 00:54:54;;;;;;;9.13;6.07;;;;;;;;;;4972410;28;20212;-74
2023/10/01 00:57:21;;;;;;;9.83;6.20;;;;;;;;;;4972403;28;20182;-74
2023/10/01 00:59:47;;;;;;;8.43;5.67;;;;;;;;;;4951635;28;20201;-75
2023/10/01 01:02:15;;;;;;;8.60;5.43;;;;;;;;;;4973580;28;20189;-75
2023/10/01 01:04:44;;;;;;;6.30;4.67;;;;;;;;;;4955985;28;20271;-75
2023/10/01 01:07:19;;;;;;;8.70;4.70;;;;;;;;;;4967341;28;20190;-75
2023/10/01 01:09:45;;;;;;;12.53;7.10;;;;;;;;;;4952055;28;20509;-74
2023/10/01 01:12:11;;;;;;;9.03;5.97;;;;;;;;;;4973256;28;20173;-74
2023/10/01 01:14:37;;;;;;;11.30;5.93;;;;;;;;;;4972507;28;20263;-74
2023/10/01 01:17:04;;;;;;;8.83;5.83;;;;;;;;;;4950699;28;20277;-74
2023/10/01 01:19:29;;;;;;;9.27;5.40;;;;;;;;;;4955380;28;20213;-74
2023/10/01 01:21:55;;;;;;;10.47;6.00;;;;;;;;;;4963363;28;20256;-74
2023/10/01 01:24:20;;;;;;;8.53;5.57;;;;;;;;;;4955269;28;20177;-74
2023/10/01 01:26:51;;;;;;;9.47;6.27;;;;;;;;;;4955217;28;20236;-75
2023/10/01 01:29:29;;;;;;;8.87;5.73;;;;;;;;;;4970922;28;20209;-74
2023/10/01 01:32:06;;;;;;;9.40;5.47;;;;;;;;;;4953663;28;20196;-74
2023/10/01 01:34:34;;;;;;;8.33;5.77;;;;;;;;;;4954029;28;20192;-75
2023/10/01 01:37:01;;;;;;;7.33;5.27;;;;;;;;;;4951737;28;20212;-75
2023/10/01 01:39:35;;;;;;;10.90;6.40;;;;;;;;;;4971211;28;20243;-75
2023/10/01 01:42:00;;;;;;;9.57;6.10;;;;;;;;;;4953424;28;20309;-74
2023/10/01 01:44:25;;;;;;;9.20;5.67;;;;;;;;;;4955194;28;20273;-75
2023/10/01 01:46:59;;;;;;;10.03;5.03;;;;;;;;;;4957638;28;20189;-75
2023/10/01 01:49:25;;;;;;;8.17;5.20;;;;;;;;;;4955098;28;20182;-74
2023/10/01 01:52:03;;;;;;;6.50;4.97;;;;;;;;;;4970516;28;20192;-74
2023/10/01 01:54:36;;;;;;;10.10;6.00;;;;;;;;;;4957980;28;20194;-74
2023/10/01 01:57:02;;;;;;;10.03;5.27;;;;;;;;;;4970280;28;20185;-74
2023/10/01 01:59:28;;;;;;;8.87;6.23;;;;;;;;;;4956746;28;20190;-74
2023/10/01 02:01:55;;;;;;;8.83;5.57;;;;;;;;;;4969563;28;20229;-74
2023/10/01 02:04:22;;;;;;;7.77;5.67;;;;;;;;;;4954533;28;20178;-75
2023/10/01 02:06:48;;;;;;;9.67;5.33;;;;;;;;;;4968738;28;20232;-75
2023/10/01 02:09:14;;;;;;;8.20;5.33;;;;;;;;;;4954265;28;20232;-74
2023/10/01 02:11:40;;;;;;;8.83;5.23;;;;;;;;;;4954862;28;20210;-74
2023/10/01 02:14:06;;;;;;;8.23;5.57;;;;;;;;;;4971577;28;20177;-74
2023/10/01 02:16:37;;;;;;;8.27;5.37;;;;;;;;;;5051652;27;20571;-73
2023/10/01 02:19:19;;;;;;;9.53;5.73;;;;;;;;;;5047082;28;20187;-73
2023/10/01 02:22:05;;;;;;;9.70;6.70;;;;;;;;;;5041631;28;20174;-73
2023/10/01 02:24:54;;;;;;;9.87;5.93;;;;;;;;;;5038716;28;20271;-73
2023/10/01 02:27:19;;;;;;;10.73;6.47;;;;;;;;;;5024412;28;20192;-73
2023/10/01 02:32:28;;;;;;;11.47;6.27;;;;;;;;;;5025706;28;20233;-73
2023/10/01 02:34:56;;;;;;;11.47;6.37;;;;;;;;;;5028069;28;20195;-73
2023/10/01 02:37:29;;;;;;;10.57;5.83;;;;;;;;;;5017271;28;20168;-73
2023/10/01 02:39:56;;;;;;;10.37;6.13;;;;;;;;;;5028162;28;20164;-73
2023/10/01 02:42:21;;;;;;;12.77;6.60;;;;;;;;;;5026922;28;20175;-73
2023/10/01 02:44:47;;;;;;;10.57;5.63;;;;;;;;;;5025710;28;20183;-73
2023/10/01 02:47:20;;;;;;;10.10;6.30;;;;;;;;;;5023507;28;20186;-73
2023/10/01 02:49:49;;;;;;;11.83;6.07;;;;;;;;;;5025601;28;20238;-73
2023/10/01 02:52:36;;;;;;;10.90;7.03;;;;;;;;;;5025216;28;20212;-74
2023/10/01 02:55:17;;;;;;;9.17;5.77;;;;;;;;;;5023293;28;20211;-73
2023/10/01 02:57:43;;;;;;;12.30;7.00;;;;;;;;;;5020983;28;20167;-74
2023/10/01 03:02:41;;;;;;;9.57;6.10;;;;;;;;;;5026351;28;20520;-74
2023/10/01 03:05:14;;;;;;;9.43;6.40;;;;;;;;;;5026462;28;20189;-73
2023/10/01 03:07:39;;;;;;;10.90;6.20;;;;;;;;;;5025658;28;20206;-73
2023/10/01 03:10:12;;;;;;;10.03;6.10;;;;;;;;;;5026380;28;20178;-73
2023/10/01 03:12:40;;;;;;;10.77;6.37;;;;;;;;;;5021035;28;20185;-73
2023/10/01 03:17:55;;;;;;;10.07;5.97;;;;;;;;;;5021995;28;20194;-73
2023/10/01 03:23:10;;;;;;;10.13;6.23;;;;;;;;;;5026620;28;20186;-73
2023/10/01 03:25:55;;;;;;;9.17;6.00;;;;;;;;;;5025378;28;20179;-74
2023/10/01 03:28:26;;;;;;;12.07;7.03;;;;;;;;;;5013087;28;20215;-73
2023/10/01 03:31:08;;;;;;;8.37;5.63;;;;;;;;;;5017528;28;20201;-73
2023/10/01 03:33:40;;;;;;;11.27;6.60;;;;;;;;;;5009203;28;20221;-74
2023/10/01 03:36:09;;;;;;;10.77;6.40;;;;;;;;;;5009548;28;20211;-74
2023/10/01 03:38:36;;;;;;;8.70;5.60;;;;;;;;;;5010298;28;20190;-74
2023/10/01 03:41:07;;;;;;;12.20;5.83;;;;;;;;;;5011272;28;20226;-73
2023/10/01 03:43:34;;;;;;;9.03;6.33;;;;;;;;;;5010688;28;20187;-73
2023/10/01 03:46:07;;;;;;;8.33;5.27;;;;;;;;;;5008679;28;20274;-73
2023/10/01 03:48:57;;;;;;;9.93;5.87;;;;;;;;;;5006187;28;20274;-74
2023/10/01 03:51:28;;;;;;;10.90;5.47;;;;;;;;;;5010689;28;20267;-73
2023/10/01 03:53:59;;;;;;;9.93;6.47;;;;;;;;;;5016161;28;20185;-73
2023/10/01 03:56:29;;;;;;;10.03;6.37;;;;;;;;;;5007337;28;20268;-74
2023/10/01 03:58:55;;;;;;;9.83;6.83;;;;;;;;;;5007153;28;20174;-73
2023/10/01 04:01:33;;;;;;;12.40;8.03;;;;;;;;;;5010820;28;20241;-74
2023/10/01 04:04:00;;;;;;;9.27;6.47;;;;;;;;;;5007348;28;20234;-73
2023/10/01 04:06:25;;;;;;;10.43;6.50;;;;;;;;;;5009218;28;20214;-73
2023/10/01 04:08:55;;;;;;;10.67;5.50;;;;;;;;;;5013438;28;20206;-73
2023/10/01 04:11:41;;;;;;;10.30;6.60;;;;;;;;;;5012694;28;20194;-73
2023/10/01 04:14:17;;;;;;;9.87;5.80;;;;;;;;;;5013549;28;20277;-74
2023/10/01 04:16:46;;;;;;;10.00;6.30;;;;;;;;;;5008344;28;20270;-73
2023/10/01 04:19:12;;;;;;;8.80;5.80;;;;;;;;;;5010992;28;21082;-73
2023/10/01 04:21:37;;;;;;;10.23;5.83;;;;;;;;;;5010265;28;20186;-74
2023/10/01 04:24:02;;;;;;;10.60;6.60;;;;;;;;;;5011207;28;20394;-74
2023/10/01 04:26:30;;;;;;;9.23;5.37;;;;;;;;;;5009097;28;20195;-73
2023/10/01 04:28:59;;;;;;;8.27;5.33;;;;;;;;;;5008024;28;20187;-74
2023/10/01 04:31:42;;;;;;;9.60;6.27;;;;;;;;;;5011489;28;20202;-74
2023/10/01 04:34:10;;;;;;;9.60;6.00;;;;;;;;;;5012179;28;20197;-74
2023/10/01 04:36:38;;;;;;;8.50;5.20;;;;;;;;;;5007638;28;20223;-73
2023/10/01 04:39:03;;;;;;;10.03;6.10;;;;;;;;;;5009233;28;20181;-73
2023/10/01 04:41:28;;;;;;;8.23;5.03;;;;;;;;;;5014614;28;20267;-73
2023/10/01 04:43:59;;;;;;;11.93;6.87;;;;;;;;;;5079178;22;20238;-88
2023/10/01 04:46:25;;;;;;;8.07;5.83;;;;;;;;;;5023650;28;20187;-88
2023/10/01 04:48:54;;;;;;;9.17;5.73;;;;;;;;;;5028179;28;20187;-88
2023/10/01 04:51:22;;;;;;;9.40;5.67;;;;;;;;;;5029407;28;20187;-88
2023/10/01 04:53:47;;;;;;;10.60;6.43;;;;;;;;;;5031825;28;20174;-87
2023/10/01 04:56:20;;;;;;;11.53;6.77;;;;;;;;;;5045212;28;20294;-89
2023/10/01 04:58:46;;;;;;;11.73;6.83;;;;;;;;;;5037688;28;20193;-88
2023/10/01 05:01:11;;;;;;;9.60;6.07;;;;;;;;;;5046927;28;20183;-87
2023/10/01 05:03:40;;;;;;;10.33;6.10;;;;;;;;;;5044970;28;20188;-88
2023/10/01 05:06:18;;;;;;;10.47;5.77;;;;;;;;;;5045562;28;20246;-88
2023/10/01 05:08:43;;;;;;;11.80;7.00;;;;;;;;;;5046677;28;20223;-88
2023/10/01 05:11:12;;;;;;;8.53;5.00;;;;;;;;;;5045800;28;20213;-88
2023/10/01 05:13:42;;;;;;;11.00;6.40;;;;;;;;;;5060401;28;20197;-88
2023/10/01 05:16:13;;;;;;;11.20;5.77;;;;;;;;;;5045557;28;20289;-89
2023/10/01 05:18:45;;;;;;;8.50;5.53;;;;;;;;;;5045354;28;20182;-88
2023/10/01 05:21:14;;;;;;;10.20;6.70;;;;;;;;;;5046405;28;20178;-89
2023/10/01 05:23:39;;;;;;;9.27;6.03;;;;;;;;;;5037110;28;20231;-88
2023/10/01 05:26:08;;;;;;;12.67;6.50;;;;;;;;;;5047444;28;20216;-88
2023/10/01 05:28:35;;;;;;;9.87;6.43;;;;;;;;;;5052042;28;20193;-89
2023/10/01 05:31:05;;;;;;;8.03;5.43;;;;;;;;;;5045406;28;20190;-87
2023/10/01 05:33:33;;;;;;;10.17;5.73;;;;;;;;;;5040333;28;20278;-88
2023/10/01 05:35:59;;;;;;;7.83;6.23;;;;;;;;;;5041918;28;20198;-88
2023/10/01 05:38:26;;;;;;;14.80;6.93;;;;;;;;;;5045503;28;20185;-89
2023/10/01 05:40:54;;;;;;;13.77;6.90;;;;;;;;;;5044291;28;20234;-88
2023/10/01 05:43:23;;;;;;;10.17;6.43;;;;;;;;;;5049063;28;20175;-88
2023/10/01 05:45:52;;;;;;;12.47;6.73;;;;;;;;;;5044260;28;20191;-88
2023/10/01 05:48:22;;;;;;;11.13;6.70;;;;;;;;;;5039112;28;20251;-88
2023/10/01 05:50:49;;;;;;;11.13;6.23;;;;;;;;;;5042564;28;20182;-87
2023/10/01 05:53:14;;;;;;;14.23;7.03;;;;;;;;;;5039145;28;20187;-88
2023/10/01 05:55:41;;;;;;;9.27;5.83;;;;;;;;;;5042109;28;20218;-88
2023/10/01 05:58:19;;;;;;;10.00;5.97;;;;;;;;;;5048121;28;20224;-89
2023/10/01 06:00:46;;;;;;;11.43;6.70;;;;;;;;;;5047977;28;20177;-88
2023/10/01 06:03:15;;;;;;;11.30;6.67;;;;;;;;;;5039966;28;20269;-88
2023/10/01 06:05:46;;;;;;;9.33;6.80;;;;;;;;;;5045647;28;20190;-88
2023/10/01 06:08:15;;;;;;;11.33;6.60;;;;;;;;;;5039893;28;20186;-88
2023/10/01 06:11:09;;;;;;;12.47;6.77;;;;;;;;;;5048619;28;20256;-88
2023/10/01 06:13:37;;;;;;;9.93;6.63;;;;;;;;;;5039838;28;20424;-88
2023/10/01 06:16:11;;;;;;;12.53;6.30;;;;;;;;;;5039661;28;20202;-90
2023/10/01 06:18:49;;;;;;;11.47;6.17;;;;;;;;;;5047954;28;20273;-87
2023/10/01 06:21:18;;;;;;;11.17;6.53;;;;;;;;;;5042003;28;20178;-88
2023/10/01 06:23:49;;;;;;;11.80;6.00;;;;;;;;;;5037258;28;20245;-88
2023/10/01 06:26:22;;;;;;;13.70;6.27;;;;;;;;;;5042768;28;20193;-88
2023/10/01 06:28:48;;;;;;;12.67;6.90;;;;;;;;;;5047082;28;20178;-88
2023/10/01 06:31:16;;;;;;;11.63;6.40;;;;;;;;;;5042880;28;20223;-89
2023/10/01 06:33:42;;;;;;;13.47;7.47;;;;;;;;;;5042440;28;20194;-88
2023/10/01 06:36:16;;;;;;;9.57;6.50;;;;;;;;;;5040084;28;20207;-88
2023/10/01 06:38:44;;;;;;;13.37;7.03;;;;;;;;;;5045595;28;20188;-87
2023/10/01 06:41:13;;;;;;;12.03;7.03;;;;;;;;;;5041934;28;20183;-88
2023/10/01 06:43:54;;;;;;;12.37;7.10;;;;;;;;;;5043795;28;20229;-88
2023/10/01 06:46:22;;;;;;;13.17;7.30;;;;;;;;;;5043329;28;20198;-88
2023/10/01 06:48:50;;;;;;;12.47;7.27;;;;;;;;;;5044850;28;20182;-88
2023/10/01 06:51:15;;;;;;;9.40;5.90;;;;;;;;;;5044863;28;20240;-90
2023/10/01 06:53:45;;;;;;;16.03;7.07;;;;;;;;;;5063614;28;20182;-88
2023/10/01 06:56:10;;;;;;;14.73;6.67;;;;;;;;;;5043191;28;20241;-88
2023/10/01 06:58:36;;;;;;;13.47;6.80;;;;;;;;;;5041833;28;20203;-88
2023/10/01 07:01:02;;;;;;;12.10;6.90;;;;;;;;;;5045999;28;20202;-88
2023/10/01 07:03:30;;;;;;;12.93;6.93;;;;;;;;;;5049775;28;20174;-87
2023/10/01 07:05:57;;;;;;;14.80;7.60;;;;;;;;;;5046062;28;20183;-88
2023/10/01 07:08:37;;;;;;;13.17;6.83;;;;;;;;;;5046947;28;20194;-88
2023/10/01 07:11:11;;;;;;;11.00;6.70;;;;;;;;;;5049452;28;20185;-88
2023/10/01 07:13:37;;;;;;;12.30;6.83;;;;;;;;;;5046528;28;20220;-88
2023/10/01 07:16:03;;;;;;;12.70;6.70;;;;;;;;;;5044687;28;20196;-89
2023/10/01 07:18:29;;;;;;;12.80;7.00;;;;;;;;;;5040066;28;20191;-88
2023/10/01 07:21:00;;;;;;;10.93;6.90;;;;;;;;;;5040208;28;20176;-88
2023/10/01 07:23:25;;;;;;;14.73;7.50;;;;;;;;;;5043734;28;20174;-88
2023/10/01 07:26:05;;;;;;;10.00;6.67;;;;;;;;;;5052301;28;20188;-87
2023/10/01 07:28:31;;;;;;;10.40;6.60;;;;;;;;;;5042503;28;20304;-88
2023/10/01 07:31:01;;;;;;;11.43;6.07;;;;;;;;;;5048067;28;20273;-88
2023/10/01 07:33:28;;;;;;;11.53;6.90;;;;;;;;;;5047000;28;20492;-88
2023/10/01 07:35:59;;;;;;;11.77;6.60;;;;;;;;;;5048492;28;20212;-89
2023/10/01 07:38:28;;;;;;;10.70;6.10;;;;;;;;;;5047841;28;20190;-90
2023/10/01 07:41:07;;;;;;;11.87;6.93;;;;;;;;;;5048828;28;20177;-88
2023/10/01 07:43:33;;;;;;;12.73;7.07;;;;;;;;;;5053566;28;20184;-88
2023/10/01 07:45:59;;;;;;;13.47;6.73;;;;;;;;;;5051189;28;20178;-88
2023/10/01 07:48:28;;;;;;;10.90;6.30;;;;;;;;;;5047822;28;20192;-90
2023/10/01 07:50:58;;;;;;;9.03;6.23;;;;;;;;;;5045360;28;20266;-89
2023/10/01 07:53:23;;;;;;;11.63;6.53;;;;;;;;;;5048797;28;20174;-89
2023/10/01 07:55:49;;;;;;;9.50;6.40;;;;;;;;;;5048698;28;20251;-88
2023/10/01 07:58:57;;;;;;;11.37;7.17;;;;;;;;;;5048202;28;20209;-89
2023/10/01 08:02:07;;;;;;;13.17;7.83;;;;;;;;;;5047463;28;20193;-88
2023/10/01 08:03:55;;;;;;;14.03;7.07;;;;;;;;;;5042105;28;20197;-88
2023/10/01 08:06:29;;;;;;;11.27;6.73;;;;;;;;;;5047247;28;20668;-88
2023/10/01 08:08:57;;;;;;;10.83;6.27;;;;;;;;;;5043641;28;20182;-88
2023/10/01 08:11:58;;;;;;;10.63;6.13;;;;;;;;;;5041561;28;20186;-89
2023/10/01 08:14:26;;;;;;;10.97;7.00;;;;;;;;;;5040698;28;20194;-88
2023/10/01 08:16:53;;;;;;;9.67;6.33;;;;;;;;;;5043697;28;20210;-88
2023/10/01 08:19:20;;;;;;;11.37;5.83;;;;;;;;;;5047004;28;20205;-87
2023/10/01 08:21:50;;;;;;;11.03;6.47;;;;;;;;;;5050343;28;20187;-87
2023/10/01 08:24:18;;;;;;;12.27;6.50;;;;;;;;;;5047236;28;20175;-88
2023/10/01 08:26:58;;;;;;;11.70;6.83;;;;;;;;;;5048286;28;20203;-87
2023/10/01 08:29:28;;;;;;;9.27;6.17;;;;;;;;;;5046768;28;20225;-87
2023/10/01 08:34:24;;;;;;;10.73;6.90;;;;;;;;;;5046988;28;20315;-88
2023/10/01 08:36:54;;;;;;;11.10;6.73;;;;;;;;;;5046793;28;20186;-88
2023/10/01 08:39:20;;;;;;;11.13;6.60;;;;;;;;;;5043283;28;20188;-88
2023/10/01 08:41:51;;;;;;;10.63;6.07;;;;;;;;;;5037462;28;20219;-89
2023/10/01 08:44:20;;;;;;;11.80;6.53;;;;;;;;;;5058691;28;20276;-90
2023/10/01 08:46:47;;;;;;;8.27;5.97;;;;;;;;;;5038900;28;20275;-88
2023/10/01 08:49:30;;;;;;;11.67;6.20;;;;;;;;;;5047500;28;20180;-90
2023/10/01 08:54:43;;;;;;;10.07;7.27;;;;;;;;;;5043485;28;20186;-88
2023/10/01 08:57:17;;;;;;;7.90;5.83;;;;;;;;;;5042126;28;20185;-88
2023/10/01 08:59:43;;;;;;;10.10;5.73;;;;;;;;;;5048225;28;20438;-88
2023/10/01 09:02:15;;;;;;;8.73;5.77;;;;;;;;;;5042896;28;20180;-90
2023/10/01 09:04:44;;;;;;;9.27;6.27;;;;;;;;;;5042575;28;20182;-89
2023/10/01 09:07:18;;;;;;;11.00;5.70;;;;;;;;;;5044756;28;20185;-88
2023/10/01 09:09:53;;;;;;;11.43;6.63;;;;;;;;;;5048692;28;20188;-88
2023/10/01 09:12:19;;;;;;;9.10;6.03;;;;;;;;;;5043256;28;20210;-90
2023/10/01 09:14:46;;;;;;;9.87;6.13;;;;;;;;;;5045872;28;20213;-88
2023/10/01 09:17:27;;;;;;;8.93;6.07;;;;;;;;;;5032794;28;20184;-90
2023/10/01 09:19:52;;;;;;;9.37;5.87;;;;;;;;;;5043041;28;20207;-89
2023/10/01 09:22:51;;;;;;;10.43;6.43;;;;;;;;;;5043104;28;20185;-88
2023/10/01 09:25:20;;;;;;;11.77;6.37;;;;;;;;;;5044510;28;20201;-88
2023/10/01 09:27:59;;;;;;;9.63;5.93;;;;;;;;;;5041204;28;20228;-90
2023/10/01 09:30:31;;;;;;;10.33;6.50;;;;;;;;;;5045610;28;20194;-90
2023/10/01 09:33:04;;;;;;;10.90;6.93;;;;;;;;;;5046095;28;20245;-89
2023/10/01 09:35:40;;;;;;;12.97;6.93;;;;;;;;;;5042100;28;20203;-88
2023/10/01 09:38:10;;;;;;;9.07;6.53;;;;;;;;;;5045112;28;20196;-89
2023/10/01 09:40:38;;;;;;;10.37;5.97;;;;;;;;;;5042798;28;20265;-89
2023/10/01 09:43:04;;;;;;;13.77;7.17;;;;;;;;;;5045662;28;20182;-89
2023/10/01 09:45:34;;;;;;;10.90;6.07;;;;;;;;;;5046050;28;20254;-89
2023/10/01 09:48:09;;;;;;;12.23;7.10;;;;;;;;;;5045807;28;20196;-88
2023/10/01 09:50:43;;;;;;;9.53;6.40;;;;;;;;;;5040067;28;20216;-89
2023/10/01 09:53:12;;;;;;;10.13;5.93;;;;;;;;;;5043567;28;20191;-89
2023/10/01 09:55:47;;;;;;;11.33;7.00;;;;;;;;;;5040842;28;20233;-88
2023/10/01 09:58:20;;;;;;;10.23;6.17;;;;;;;;;;5039335;28;20295;-88
2023/10/01 10:00:46;;;;;;;11.60;6.50;;;;;;;;;;5043635;28;20201;-89
2023/10/01 10:03:12;;;;;;;11.23;6.73;;;;;;;;;;5036975;28;20186;-88
2023/10/01 10:05:40;;;;;;;16.30;7.33;;;;;;;;;;5049110;28;20204;-88
2023/10/01 10:08:15;;;;;;;10.67;6.47;;;;;;;;;;5035706;28;20186;-87
2023/10/01 10:10:48;;;;;;;10.33;7.87;;;;;;;;;;5057933;28;20190;-90
2023/10/01 10:13:57;;;;;;;10.37;6.83;;;;;;;;;;5034199;28;20184;-89
2023/10/01 10:16:32;;;;;;;11.93;5.87;;;;;;;;;;4982556;28;20297;-88
2023/10/01 10:19:15;;;;;;;9.60;6.07;;;;;;;;;;4991817;28;20289;-88
2023/10/01 10:24:30;;;;;;;9.93;6.50;;;;;;;;;;5003703;28;20195;-88
2023/10/01 10:27:04;;;;;;;9.57;6.47;;;;;;;;;;4987306;28;20218;-89
2023/10/01 10:29:47;;;;;;;11.77;6.63;;;;;;;;;;4987297;28;20286;-88
2023/10/01 10:32:15;;;;;;;10.03;6.50;;;;;;;;;;4997329;28;20415;-89
2023/10/01 10:35:03;;;;;;;8.60;5.90;;;;;;;;;;4987893;28;20285;-89
2023/10/01 10:37:37;;;;;;;9.67;6.37;;;;;;;;;;5000818;28;20494;-87
2023/10/01 10:40:26;;;;;;;9.43;6.73;;;;;;;;;;4997802;28;20215;-89
2023/10/01 10:42:58;;;;;;;10.10;6.30;;;;;;;;;;5006618;28;20226;-90
2023/10/01 10:45:45;;;;;;;12.10;6.87;;;;;;;;;;4989991;28;20316;-89
2023/10/01 10:48:11;;;;;;;9.97;6.17;;;;;;;;;;5045886;28;20192;-88
2023/10/01 10:50:39;;;;;;;10.43;6.23;;;;;;;;;;5046828;28;20279;-88
2023/10/01 10:53:14;;;;;;;11.83;6.73;;;;;;;;;;5048408;28;20193;-88
2023/10/01 10:55:40;;;;;;;10.67;6.90;;;;;;;;;;5047934;28;20198;-89
2023/10/01 10:58:12;;;;;;;12.33;7.53;;;;;;;;;;5049118;28;20204;-89
2023/10/01 11:00:40;;;;;;;12.40;6.67;;;;;;;;;;5048562;28;20187;-90
2023/10/01 11:03:10;;;;;;;170.87;156.20;;;;;;;;;;5047855;28;20172;-90
2023/10/01 11:05:49;;;;;;;11.40;7.13;;;;;;;;;;5034113;28;20446;-89
2023/10/01 11:08:25;;;;;;;9.50;6.00;;;;;;;;;;5045222;28;20200;-89
2023/10/01 11:10:51;;;;;;;9.37;6.60;;;;;;;;;;5050253;28;20180;-88
2023/10/01 11:13:27;;;;;;;12.03;6.67;;;;;;;;;;5049694;28;20187;-89
2023/10/01 11:15:52;;;;;;;10.60;6.90;;;;;;;;;;5047869;28;20190;-88
2023/10/01 11:18:25;;;;;;;11.73;7.10;;;;;;;;;;5046736;28;20186;-91
2023/10/01 11:21:01;;;;;;;11.10;6.47;;;;;;;;;;5049633;28;20201;-88
2023/10/01 11:23:26;;;;;;;12.20;7.20;;;;;;;;;;5047535;28;20182;-88
2023/10/01 11:25:51;;;;;;;11.50;7.03;;;;;;;;;;5047488;28;20248;-89
2023/10/01 11:28:17;;;;;;;10.23;6.67;;;;;;;;;;5049295;28;20185;-88
2023/10/01 11:30:42;;;;;;;9.57;6.27;;;;;;;;;;5045809;28;20214;-89
2023/10/01 11:35:41;;;;;;;10.63;6.07;;;;;;;;;;5040671;28;20221;-90
2023/10/01 11:38:19;;;;;;;12.57;7.37;;;;;;;;;;5045482;28;20235;-89
2023/10/01 11:44:00;;;;;;;9.53;6.80;;;;;;;;;;5047977;28;20191;-89
2023/10/01 11:46:32;;;;;;;10.90;6.97;;;;;;;;;;5042484;28;20274;-89
2023/10/01 11:48:59;;;;;;;11.33;6.63;;;;;;;;;;5049851;28;20181;-88
2023/10/01 11:51:50;;;;;;;9.50;6.90;;;;;;;;;;5049834;28;20185;-89
2023/10/01 11:54:25;;;;;;;11.60;7.47;;;;;;;;;;5048528;28;20210;-88
2023/10/01 11:57:07;;;;;;;10.47;6.47;;;;;;;;;;5051099;28;20200;-88
2023/10/01 11:59:34;;;;;;;10.52;6.85;;;;;;;;;;5046698;28;20205;-90
2023/10/01 12:02:20;;;;;;;11.13;6.90;;;;;;;;;;5046929;28;20183;-89
2023/10/01 12:04:58;;;;;;;10.07;7.10;;;;;;;;;;5047036;28;20217;-90
2023/10/01 12:07:27;;;;;;;11.45;7.30;;;;;;;;;;5044809;28;20194;-89
2023/10/01 12:09:55;;;;;;;10.93;7.03;;;;;;;;;;5047714;28;20200;-89
2023/10/01 12:12:21;;;;;;;9.82;6.65;;;;;;;;;;5047407;28;20181;-89
2023/10/01 12:14:56;;;;;;;11.70;7.40;;;;;;;;;;5048333;28;20268;-89
2023/10/01 12:17:26;;;;;;;16.23;6.63;;;;;;;;;;5045093;28;20249;-89
2023/10/01 12:19:51;;;;;;;11.23;7.20;;;;;;;;;;5041247;28;20227;-89
2023/10/01 12:22:16;;;;;;;10.63;7.07;;;;;;;;;;5043132;28;20190;-89
2023/10/01 12:24:44;;;;;;;9.82;6.68;;;;;;;;;;5045814;28;20190;-88
2023/10/01 12:27:11;;;;;;;12.52;7.65;;;;;;;;;;5044652;28;20228;-89
2023/10/01 12:29:49;;;;;;;12.45;7.72;;;;;;;;;;5046211;28;20178;-90
2023/10/01 12:32:14;;;;;;;10.85;7.32;;;;;;;;;;5042958;28;20217;-91
2023/10/01 12:34:42;;;;;;;12.10;6.55;;;;;;;;;;5042159;28;20885;-88
2023/10/01 12:37:35;;;;;;;11.48;7.40;;;;;;;;;;5047097;28;20249;-89
2023/10/01 12:40:14;;;;;;;11.98;7.85;;;;;;;;;;5046327;28;20174;-89
2023/10/01 12:42:40;;;;;;;11.75;6.82;;;;;;;;;;5046377;28;20182;-89
2023/10/01 12:45:19;;;;;;;11.15;6.90;;;;;;;;;;5046104;28;20229;-89
2023/10/01 12:47:50;;;;;;;12.02;7.45;;;;;;;;;;5043636;28;20182;-89
2023/10/01 12:50:26;;;;;;;12.50;7.00;;;;;;;;;;5046583;28;20178;-90
2023/10/01 12:52:51;;;;;;;11.77;6.82;;;;;;;;;;5042626;28;20237;-89
2023/10/01 12:55:16;;;;;;;20.55;8.10;;;;;;;;;;5038409;28;20251;-88
2023/10/01 12:57:42;;;;;;;11.15;7.80;;;;;;;;;;5050005;28;20224;-89
2023/10/01 13:00:43;;;;;;;11.25;7.05;;;;;;;;;;5044461;28;20178;-89
2023/10/01 13:03:09;;;;;;;10.23;7.55;;;;;;;;;;5046485;28;20186;-89
2023/10/01 13:05:43;;;;;;;10.70;7.68;;;;;;;;;;5048374;28;20198;-89
2023/10/01 13:08:10;;;;;;;13.45;8.25;;;;;;;;;;5047316;28;20182;-89
2023/10/01 13:10:37;;;;;;;11.00;7.72;;;;;;;;;;5043292;28;20189;-89
2023/10/01 13:13:05;;;;;;;12.82;8.00;;;;;;;;;;5049250;28;20174;-89
2023/10/01 13:15:30;;;;;;;11.50;7.88;;;;;;;;;;5048694;28;20198;-88
2023/10/01 13:18:00;;;;;;;10.88;7.97;;;;;;;;;;5046970;28;20185;-88
2023/10/01 13:20:26;;;;;;;12.82;8.57;;;;;;;;;;5041710;28;20254;-85
2023/10/01 13:22:52;;;;;;;10.38;7.82;;;;;;;;;;5046020;28;20178;-88
2023/10/01 13:25:23;;;;;;;10.27;7.07;;;;;;;;;;5048779;28;20174;-87
2023/10/01 13:28:01;;;;;;;11.07;7.93;;;;;;;;;;5047654;28;20237;-87
2023/10/01 13:31:03;;;;;;;11.00;7.00;;;;;;;;;;5044631;28;20182;-87
2023/10/01 13:33:53;;;;;;;13.30;8.20;;;;;;;;;;5047309;28;20183;-87
2023/10/01 13:36:23;;;;;;;11.68;8.38;;;;;;;;;;5047207;28;20285;-88
2023/10/01 13:39:13;;;;;;;12.13;8.40;;;;;;;;;;5042666;28;20208;-87
2023/10/01 14:08:45;;;;;;;11.80;7.22;;;;;;;;;;5043182;28;20185;-88
2023/10/01 14:11:11;;;;;;;12.88;7.93;;;;;;;;;;5045720;28;20267;-89
2023/10/01 14:13:36;;;;;;;13.00;8.25;;;;;;;;;;5045676;28;20194;-87
2023/10/01 14:16:11;;;;;;;13.80;8.70;;;;;;;;;;5045681;28;20267;-87
2023/10/01 14:18:40;;;;;;;10.98;7.20;;;;;;;;;;5046062;28;20269;-87
2023/10/01 14:21:12;;;;;;;12.43;7.85;;;;;;;;;;5047125;28;20257;-88
2023/10/01 14:23:42;;;;;;;10.90;7.60;;;;;;;;;;5046338;28;20182;-88
2023/10/01 14:26:13;;;;;;;10.85;7.40;;;;;;;;;;5047374;28;20174;-87
2023/10/01 14:28:39;;;;;;;11.65;7.70;;;;;;;;;;5037869;28;20187;-88
2023/10/01 14:31:07;;;;;;;11.23;7.85;;;;;;;;;;5042413;28;20182;-87
2023/10/01 14:33:33;;;;;;;12.43;8.48;;;;;;;;;;5042458;28;20186;-86
2023/10/01 14:36:04;;;;;;;10.52;7.50;;;;;;;;;;5045017;28;20255;-88
2023/10/01 14:38:37;;;;;;;10.82;7.85;;;;;;;;;;5041259;28;20186;-87
2023/10/01 14:41:15;;;;;;;10.13;6.07;;;;;;;;;;5046340;28;20178;-87
2023/10/01 14:43:48;;;;;;;10.93;7.30;;;;;;;;;;5043516;28;20214;-87
2023/10/01 14:46:14;;;;;;;10.18;6.88;;;;;;;;;;5047146;28;20232;-88
2023/10/01 14:48:45;;;;;;;11.10;6.97;;;;;;;;;;5045659;28;20189;-87
2023/10/01 14:51:11;;;;;;;9.73;6.47;;;;;;;;;;5044339;28;20248;-87
2023/10/01 14:53:36;;;;;;;10.90;6.78;;;;;;;;;;5043117;28;20197;-87
2023/10/01 14:56:04;;;;;;;10.90;6.95;;;;;;;;;;5046768;28;20202;-87
2023/10/01 14:58:30;;;;;;;9.43;6.30;;;;;;;;;;5042733;28;20202;-88
2023/10/01 15:00:57;;;;;;;9.52;6.72;;;;;;;;;;5048240;28;20181;-87
2023/10/01 15:03:34;;;;;;;9.10;6.15;;;;;;;;;;5046122;28;20178;-87
2023/10/01 15:06:01;;;;;;;10.55;5.88;;;;;;;;;;5044623;28;20182;-88
2023/10/01 15:08:29;;;;;;;9.25;6.20;;;;;;;;;;5045328;28;20174;-88
2023/10/01 15:10:54;;;;;;;12.25;6.88;;;;;;;;;;5048114;28;20196;-87
2023/10/01 15:13:33;;;;;;;10.20;6.85;;;;;;;;;;5045186;28;20265;-89
2023/10/01 15:16:02;;;;;;;9.57;6.30;;;;;;;;;;5041135;28;20206;-88
2023/10/01 15:18:27;;;;;;;9.85;7.15;;;;;;;;;;5043811;28;20174;-88
2023/10/01 15:20:54;;;;;;;10.90;7.30;;;;;;;;;;5040370;28;20201;-88
2023/10/01 15:23:19;;;;;;;10.70;7.05;;;;;;;;;;5049324;28;20207;-87
2023/10/01 15:25:45;;;;;;;11.48;7.18;;;;;;;;;;5048680;28;20288;-87
2023/10/01 15:28:15;;;;;;;12.23;6.78;;;;;;;;;;5039928;28;20280;-87
2023/10/01 15:30:44;;;;;;;9.23;6.47;;;;;;;;;;5046423;28;20198;-87
2023/10/01 15:33:15;;;;;;;11.18;6.68;;;;;;;;;;5042766;28;20244;-88
2023/10/01 15:35:50;;;;;;;12.52;7.32;;;;;;;;;;5042481;28;20317;-87
2023/10/01 15:38:30;;;;;;;9.23;6.57;;;;;;;;;;5046129;28;20165;-87
2023/10/01 15:40:55;;;;;;;10.32;6.35;;;;;;;;;;5043885;28;20265;-86
2023/10/01 15:43:21;;;;;;;9.60;6.38;;;;;;;;;;5046199;28;20286;-88
2023/10/01 15:45:49;;;;;;;9.75;6.80;;;;;;;;;;5042715;28;20192;-87